Terminal Aerodrome Forecast
Issued by NWS

Home | Current Version | Previous Version | Text Only | Print | Product List | Glossary On
Versions: 1 2 3 4 5 6 7 8 9 10 11 12 13 14 15 16 17 18 19 20 21 22 23 24
076
FTUS44 KBMX 211746
TAFANB
TAF
KANB 211746Z 2118/2218 08008G15KT P6SM SCT040 BKN150
     FM212200 15005KT P6SM SCT015 SCT050
     FM220400 15008KT P6SM BKN015
     FM220700 17005KT 5SM TSRA BR SCT008 BKN050CB=

USA.gov is the U.S. government's official web portal to all federal, state and local government web resources and services.